sensor_id;sensor_type;location;lat;lon;timestamp;P1;durP1;ratioP1;P2;durP2;ratioP2
9888;SDS011;4983;42.112;24.738;2022-12-24T00:00:29;112.93;;;79.27;;
9888;SDS011;4983;42.112;24.738;2022-12-24T00:02:57;140.63;;;84.50;;
9888;SDS011;4983;42.112;24.738;2022-12-24T00:05:24;115.10;;;82.73;;
9888;SDS011;4983;42.112;24.738;2022-12-24T00:07:50;121.87;;;86.10;;
9888;SDS011;4983;42.112;24.738;2022-12-24T00:10:18;127.13;;;80.80;;
9888;SDS011;4983;42.112;24.738;2022-12-24T00:12:44;125.87;;;80.63;;
9888;SDS011;4983;42.112;24.738;2022-12-24T00:15:11;121.00;;;81.47;;
9888;SDS011;4983;42.112;24.738;2022-12-24T00:17:37;140.73;;;101.30;;
9888;SDS011;4983;42.112;24.738;2022-12-24T00:20:07;138.40;;;96.73;;
9888;SDS011;4983;42.112;24.738;2022-12-24T00:22:33;124.77;;;85.47;;
9888;SDS011;4983;42.112;24.738;2022-12-24T00:25:00;120.80;;;78.97;;
9888;SDS011;4983;42.112;24.738;2022-12-24T00:27:26;118.63;;;78.83;;
9888;SDS011;4983;42.112;24.738;2022-12-24T00:29:53;119.40;;;76.63;;
9888;SDS011;4983;42.112;24.738;2022-12-24T00:32:20;102.00;;;72.10;;
9888;SDS011;4983;42.112;24.738;2022-12-24T00:34:46;97.67;;;71.47;;
9888;SDS011;4983;42.112;24.738;2022-12-24T00:37:14;112.43;;;79.70;;
9888;SDS011;4983;42.112;24.738;2022-12-24T00:39:41;114.47;;;79.97;;
9888;SDS011;4983;42.112;24.738;2022-12-24T00:42:07;119.33;;;84.33;;
9888;SDS011;4983;42.112;24.738;2022-12-24T00:44:34;114.37;;;81.53;;
9888;SDS011;4983;42.112;24.738;2022-12-24T00:47:01;124.57;;;85.03;;
9888;SDS011;4983;42.112;24.738;2022-12-24T00:49:28;127.40;;;91.07;;
9888;SDS011;4983;42.112;24.738;2022-12-24T00:51:55;126.87;;;89.03;;
9888;SDS011;4983;42.112;24.738;2022-12-24T00:54:23;136.03;;;90.93;;
9888;SDS011;4983;42.112;24.738;2022-12-24T00:56:49;123.83;;;84.43;;
9888;SDS011;4983;42.112;24.738;2022-12-24T00:59:16;133.80;;;91.60;;
9888;SDS011;4983;42.112;24.738;2022-12-24T01:01:42;126.13;;;89.23;;
9888;SDS011;4983;42.112;24.738;2022-12-24T01:04:09;127.57;;;88.03;;
9888;SDS011;4983;42.112;24.738;2022-12-24T01:06:52;128.67;;;87.03;;
9888;SDS011;4983;42.112;24.738;2022-12-24T01:09:20;125.37;;;85.70;;
9888;SDS011;4983;42.112;24.738;2022-12-24T01:11:48;124.97;;;87.00;;
9888;SDS011;4983;42.112;24.738;2022-12-24T01:14:14;132.47;;;88.60;;
9888;SDS011;4983;42.112;24.738;2022-12-24T01:16:41;126.60;;;88.43;;
9888;SDS011;4983;42.112;24.738;2022-12-24T01:19:09;125.77;;;88.67;;
9888;SDS011;4983;42.112;24.738;2022-12-24T01:21:35;123.53;;;85.33;;
9888;SDS011;4983;42.112;24.738;2022-12-24T01:24:02;117.57;;;78.77;;
9888;SDS011;4983;42.112;24.738;2022-12-24T01:26:28;108.20;;;80.53;;
9888;SDS011;4983;42.112;24.738;2022-12-24T01:28:56;121.87;;;83.20;;
9888;SDS011;4983;42.112;24.738;2022-12-24T01:31:24;116.57;;;80.77;;
9888;SDS011;4983;42.112;24.738;2022-12-24T01:33:50;120.93;;;84.40;;
9888;SDS011;4983;42.112;24.738;2022-12-24T01:36:17;126.53;;;85.33;;
9888;SDS011;4983;42.112;24.738;2022-12-24T01:38:44;120.70;;;80.67;;
9888;SDS011;4983;42.112;24.738;2022-12-24T01:41:13;110.40;;;78.33;;
9888;SDS011;4983;42.112;24.738;2022-12-24T01:46:40;124.80;;;80.87;;
9888;SDS011;4983;42.112;24.738;2022-12-24T01:49:07;122.83;;;82.03;;
9888;SDS011;4983;42.112;24.738;2022-12-24T01:51:36;117.37;;;82.77;;
9888;SDS011;4983;42.112;24.738;2022-12-24T01:54:03;132.87;;;85.20;;
9888;SDS011;4983;42.112;24.738;2022-12-24T01:56:30;114.07;;;76.27;;
9888;SDS011;4983;42.112;24.738;2022-12-24T01:58:59;113.17;;;74.63;;
9888;SDS011;4983;42.112;24.738;2022-12-24T02:01:27;113.20;;;75.80;;
9888;SDS011;4983;42.112;24.738;2022-12-24T02:03:55;114.23;;;77.83;;
9888;SDS011;4983;42.112;24.738;2022-12-24T02:06:22;113.20;;;75.63;;
9888;SDS011;4983;42.112;24.738;2022-12-24T02:08:49;109.00;;;77.50;;
9888;SDS011;4983;42.112;24.738;2022-12-24T02:11:17;117.17;;;78.40;;
9888;SDS011;4983;42.112;24.738;2022-12-24T02:13:45;114.73;;;78.13;;
9888;SDS011;4983;42.112;24.738;2022-12-24T02:16:17;113.30;;;76.67;;
9888;SDS011;4983;42.112;24.738;2022-12-24T02:18:48;107.03;;;73.57;;
9888;SDS011;4983;42.112;24.738;2022-12-24T02:21:26;103.00;;;68.83;;
9888;SDS011;4983;42.112;24.738;2022-12-24T02:24:08;105.27;;;68.20;;
9888;SDS011;4983;42.112;24.738;2022-12-24T02:26:46;104.20;;;64.90;;
9888;SDS011;4983;42.112;24.738;2022-12-24T02:29:25;94.83;;;65.10;;
9888;SDS011;4983;42.112;24.738;2022-12-24T02:32:01;98.40;;;64.37;;
9888;SDS011;4983;42.112;24.738;2022-12-24T02:34:31;94.83;;;63.30;;
9888;SDS011;4983;42.112;24.738;2022-12-24T02:37:03;108.67;;;66.93;;
9888;SDS011;4983;42.112;24.738;2022-12-24T02:39:32;95.50;;;66.70;;
9888;SDS011;4983;42.112;24.738;2022-12-24T02:42:02;100.13;;;67.43;;
9888;SDS011;4983;42.112;24.738;2022-12-24T02:44:34;106.90;;;66.90;;
9888;SDS011;4983;42.112;24.738;2022-12-24T02:47:03;101.07;;;64.07;;
9888;SDS011;4983;42.112;24.738;2022-12-24T02:49:31;91.30;;;61.53;;
9888;SDS011;4983;42.112;24.738;2022-12-24T02:51:58;103.00;;;62.83;;
9888;SDS011;4983;42.112;24.738;2022-12-24T02:54:24;102.33;;;64.30;;
9888;SDS011;4983;42.112;24.738;2022-12-24T02:56:58;104.93;;;64.00;;
9888;SDS011;4983;42.112;24.738;2022-12-24T02:59:33;89.37;;;61.43;;
9888;SDS011;4983;42.112;24.738;2022-12-24T03:02:02;96.57;;;62.97;;
9888;SDS011;4983;42.112;24.738;2022-12-24T03:04:37;103.17;;;61.43;;
9888;SDS011;4983;42.112;24.738;2022-12-24T03:07:12;95.33;;;63.20;;
9888;SDS011;4983;42.112;24.738;2022-12-24T03:09:44;92.37;;;60.90;;
9888;SDS011;4983;42.112;24.738;2022-12-24T03:12:19;96.97;;;63.60;;
9888;SDS011;4983;42.112;24.738;2022-12-24T03:14:46;101.13;;;60.07;;
9888;SDS011;4983;42.112;24.738;2022-12-24T03:17:14;89.03;;;59.77;;
9888;SDS011;4983;42.112;24.738;2022-12-24T03:19:42;96.17;;;62.80;;
9888;SDS011;4983;42.112;24.738;2022-12-24T03:22:09;95.63;;;63.73;;
9888;SDS011;4983;42.112;24.738;2022-12-24T03:24:37;98.50;;;67.03;;
9888;SDS011;4983;42.112;24.738;2022-12-24T03:27:03;108.33;;;67.67;;
9888;SDS011;4983;42.112;24.738;2022-12-24T03:29:31;108.57;;;67.00;;
9888;SDS011;4983;42.112;24.738;2022-12-24T03:31:58;96.20;;;66.80;;
9888;SDS011;4983;42.112;24.738;2022-12-24T03:34:25;93.83;;;65.43;;
9888;SDS011;4983;42.112;24.738;2022-12-24T03:36:53;98.57;;;64.57;;
9888;SDS011;4983;42.112;24.738;2022-12-24T03:39:20;107.07;;;65.53;;
9888;SDS011;4983;42.112;24.738;2022-12-24T03:41:47;102.27;;;66.83;;
9888;SDS011;4983;42.112;24.738;2022-12-24T03:44:13;92.57;;;65.57;;
9888;SDS011;4983;42.112;24.738;2022-12-24T03:46:40;100.63;;;66.70;;
9888;SDS011;4983;42.112;24.738;2022-12-24T03:49:07;104.17;;;66.97;;
9888;SDS011;4983;42.112;24.738;2022-12-24T03:51:33;104.47;;;69.03;;
9888;SDS011;4983;42.112;24.738;2022-12-24T03:54:01;98.13;;;64.83;;
9888;SDS011;4983;42.112;24.738;2022-12-24T03:56:28;95.50;;;63.40;;
9888;SDS011;4983;42.112;24.738;2022-12-24T03:58:54;101.00;;;63.37;;
9888;SDS011;4983;42.112;24.738;2022-12-24T04:01:21;97.53;;;64.33;;
9888;SDS011;4983;42.112;24.738;2022-12-24T04:03:47;95.93;;;65.07;;
9888;SDS011;4983;42.112;24.738;2022-12-24T04:06:15;103.70;;;67.90;;
9888;SDS011;4983;42.112;24.738;2022-12-24T04:08:42;113.70;;;67.33;;
9888;SDS011;4983;42.112;24.738;2022-12-24T04:11:11;118.37;;;66.00;;
9888;SDS011;4983;42.112;24.738;2022-12-24T04:13:38;109.07;;;62.70;;
9888;SDS011;4983;42.112;24.738;2022-12-24T04:16:06;114.03;;;65.67;;
9888;SDS011;4983;42.112;24.738;2022-12-24T04:18:33;95.77;;;64.17;;
9888;SDS011;4983;42.112;24.738;2022-12-24T04:20:59;100.93;;;65.97;;
9888;SDS011;4983;42.112;24.738;2022-12-24T04:23:28;107.77;;;67.30;;
9888;SDS011;4983;42.112;24.738;2022-12-24T04:25:55;99.30;;;68.60;;
9888;SDS011;4983;42.112;24.738;2022-12-24T04:28:25;96.97;;;68.37;;
9888;SDS011;4983;42.112;24.738;2022-12-24T04:30:56;97.13;;;64.20;;
9888;SDS011;4983;42.112;24.738;2022-12-24T04:33:23;97.43;;;65.10;;
9888;SDS011;4983;42.112;24.738;2022-12-24T04:35:50;101.80;;;63.37;;
9888;SDS011;4983;42.112;24.738;2022-12-24T04:38:16;98.40;;;63.33;;
9888;SDS011;4983;42.112;24.738;2022-12-24T04:40:43;115.80;;;66.03;;
9888;SDS011;4983;42.112;24.738;2022-12-24T04:43:10;107.30;;;64.50;;
9888;SDS011;4983;42.112;24.738;2022-12-24T04:45:38;113.83;;;62.83;;
9888;SDS011;4983;42.112;24.738;2022-12-24T04:48:04;91.37;;;59.60;;
9888;SDS011;4983;42.112;24.738;2022-12-24T04:50:31;139.77;;;62.97;;
9888;SDS011;4983;42.112;24.738;2022-12-24T04:52:57;93.23;;;56.53;;
9888;SDS011;4983;42.112;24.738;2022-12-24T04:55:24;98.13;;;65.95;;
9888;SDS011;4983;42.112;24.738;2022-12-24T04:57:50;84.30;;;57.13;;
9888;SDS011;4983;42.112;24.738;2022-12-24T05:00:17;87.50;;;54.93;;
9888;SDS011;4983;42.112;24.738;2022-12-24T05:02:45;111.87;;;53.17;;
9888;SDS011;4983;42.112;24.738;2022-12-24T05:05:12;112.37;;;50.63;;
9888;SDS011;4983;42.112;24.738;2022-12-24T05:07:39;77.63;;;47.70;;
9888;SDS011;4983;42.112;24.738;2022-12-24T05:10:06;79.27;;;46.10;;
9888;SDS011;4983;42.112;24.738;2022-12-24T05:12:33;71.13;;;43.83;;
9888;SDS011;4983;42.112;24.738;2022-12-24T05:14:59;65.57;;;40.10;;
9888;SDS011;4983;42.112;24.738;2022-12-24T05:17:26;64.20;;;42.20;;
9888;SDS011;4983;42.112;24.738;2022-12-24T05:19:54;79.30;;;43.87;;
9888;SDS011;4983;42.112;24.738;2022-12-24T05:22:21;69.87;;;43.93;;
9888;SDS011;4983;42.112;24.738;2022-12-24T05:25:17;73.53;;;50.63;;
9888;SDS011;4983;42.112;24.738;2022-12-24T05:28:01;75.47;;;51.63;;
9888;SDS011;4983;42.112;24.738;2022-12-24T05:30:28;80.93;;;52.97;;
9888;SDS011;4983;42.112;24.738;2022-12-24T05:32:55;101.03;;;54.73;;
9888;SDS011;4983;42.112;24.738;2022-12-24T05:35:23;81.23;;;53.47;;
9888;SDS011;4983;42.112;24.738;2022-12-24T05:37:50;83.10;;;53.20;;
9888;SDS011;4983;42.112;24.738;2022-12-24T05:40:16;73.70;;;53.40;;
9888;SDS011;4983;42.112;24.738;2022-12-24T05:42:43;89.37;;;54.63;;
9888;SDS011;4983;42.112;24.738;2022-12-24T05:45:10;155.23;;;58.03;;
9888;SDS011;4983;42.112;24.738;2022-12-24T05:47:37;95.03;;;51.87;;
9888;SDS011;4983;42.112;24.738;2022-12-24T05:50:04;87.77;;;53.03;;
9888;SDS011;4983;42.112;24.738;2022-12-24T05:52:32;83.87;;;56.67;;
9888;SDS011;4983;42.112;24.738;2022-12-24T05:54:59;93.20;;;67.07;;
9888;SDS011;4983;42.112;24.738;2022-12-24T05:57:26;93.13;;;60.33;;
9888;SDS011;4983;42.112;24.738;2022-12-24T05:59:52;154.60;;;93.67;;
9888;SDS011;4983;42.112;24.738;2022-12-24T06:02:20;133.10;;;83.83;;
9888;SDS011;4983;42.112;24.738;2022-12-24T06:04:46;109.70;;;68.47;;
9888;SDS011;4983;42.112;24.738;2022-12-24T06:07:13;179.93;;;81.47;;
9888;SDS011;4983;42.112;24.738;2022-12-24T06:09:41;162.07;;;70.77;;
9888;SDS011;4983;42.112;24.738;2022-12-24T06:12:08;172.60;;;73.57;;
9888;SDS011;4983;42.112;24.738;2022-12-24T06:14:35;158.53;;;70.30;;
9888;SDS011;4983;42.112;24.738;2022-12-24T06:17:01;118.90;;;67.03;;
9888;SDS011;4983;42.112;24.738;2022-12-24T06:19:28;114.63;;;71.00;;
9888;SDS011;4983;42.112;24.738;2022-12-24T06:21:55;110.07;;;64.57;;
9888;SDS011;4983;42.112;24.738;2022-12-24T06:24:22;120.83;;;65.63;;
9888;SDS011;4983;42.112;24.738;2022-12-24T06:26:50;145.50;;;68.43;;
9888;SDS011;4983;42.112;24.738;2022-12-24T06:29:16;114.63;;;65.93;;
9888;SDS011;4983;42.112;24.738;2022-12-24T06:31:43;111.07;;;65.77;;
9888;SDS011;4983;42.112;24.738;2022-12-24T06:34:09;118.87;;;64.10;;
9888;SDS011;4983;42.112;24.738;2022-12-24T06:36:36;123.87;;;64.40;;
9888;SDS011;4983;42.112;24.738;2022-12-24T06:39:03;92.73;;;62.33;;
9888;SDS011;4983;42.112;24.738;2022-12-24T06:41:29;105.33;;;66.00;;
9888;SDS011;4983;42.112;24.738;2022-12-24T06:43:57;100.97;;;66.20;;
9888;SDS011;4983;42.112;24.738;2022-12-24T06:46:24;127.63;;;78.33;;
9888;SDS011;4983;42.112;24.738;2022-12-24T06:48:50;121.03;;;75.63;;
9888;SDS011;4983;42.112;24.738;2022-12-24T06:51:19;120.17;;;74.07;;
9888;SDS011;4983;42.112;24.738;2022-12-24T06:53:45;120.50;;;72.63;;
9888;SDS011;4983;42.112;24.738;2022-12-24T06:56:12;127.20;;;73.77;;
9888;SDS011;4983;42.112;24.738;2022-12-24T06:58:39;146.97;;;74.20;;
9888;SDS011;4983;42.112;24.738;2022-12-24T07:01:08;114.77;;;73.27;;
9888;SDS011;4983;42.112;24.738;2022-12-24T07:03:35;152.80;;;76.23;;
9888;SDS011;4983;42.112;24.738;2022-12-24T07:06:02;140.00;;;70.53;;
9888;SDS011;4983;42.112;24.738;2022-12-24T07:08:28;125.73;;;67.07;;
9888;SDS011;4983;42.112;24.738;2022-12-24T07:10:57;103.17;;;68.00;;
9888;SDS011;4983;42.112;24.738;2022-12-24T07:13:24;90.80;;;64.27;;
9888;SDS011;4983;42.112;24.738;2022-12-24T07:15:55;91.30;;;67.07;;
9888;SDS011;4983;42.112;24.738;2022-12-24T07:18:23;99.60;;;69.53;;
9888;SDS011;4983;42.112;24.738;2022-12-24T07:20:50;137.80;;;79.50;;
9888;SDS011;4983;42.112;24.738;2022-12-24T07:23:16;128.63;;;80.00;;
9888;SDS011;4983;42.112;24.738;2022-12-24T07:25:43;134.13;;;78.93;;
9888;SDS011;4983;42.112;24.738;2022-12-24T07:28:09;130.93;;;75.10;;
9888;SDS011;4983;42.112;24.738;2022-12-24T07:30:36;109.77;;;73.07;;
9888;SDS011;4983;42.112;24.738;2022-12-24T07:33:02;104.90;;;75.83;;
9888;SDS011;4983;42.112;24.738;2022-12-24T07:35:30;98.20;;;69.33;;
9888;SDS011;4983;42.112;24.738;2022-12-24T07:37:57;97.27;;;67.90;;
9888;SDS011;4983;42.112;24.738;2022-12-24T07:40:24;106.87;;;68.10;;
9888;SDS011;4983;42.112;24.738;2022-12-24T07:42:50;107.77;;;61.07;;
9888;SDS011;4983;42.112;24.738;2022-12-24T07:45:17;113.87;;;73.17;;
9888;SDS011;4983;42.112;24.738;2022-12-24T07:47:44;125.25;;;91.65;;
9888;SDS011;4983;42.112;24.738;2022-12-24T07:50:10;106.17;;;74.20;;
9888;SDS011;4983;42.112;24.738;2022-12-24T07:52:38;84.03;;;66.37;;
9888;SDS011;4983;42.112;24.738;2022-12-24T07:55:05;76.40;;;59.70;;
9888;SDS011;4983;42.112;24.738;2022-12-24T07:57:32;75.57;;;57.13;;
9888;SDS011;4983;42.112;24.738;2022-12-24T07:59:59;86.43;;;59.50;;
9888;SDS011;4983;42.112;24.738;2022-12-24T08:02:26;89.73;;;62.10;;
9888;SDS011;4983;42.112;24.738;2022-12-24T08:04:52;86.43;;;62.27;;
9888;SDS011;4983;42.112;24.738;2022-12-24T08:07:19;83.10;;;56.60;;
9888;SDS011;4983;42.112;24.738;2022-12-24T08:09:47;75.33;;;53.10;;
9888;SDS011;4983;42.112;24.738;2022-12-24T08:12:13;69.07;;;51.57;;
9888;SDS011;4983;42.112;24.738;2022-12-24T08:14:40;83.60;;;53.67;;
9888;SDS011;4983;42.112;24.738;2022-12-24T08:17:07;75.00;;;59.03;;
9888;SDS011;4983;42.112;24.738;2022-12-24T08:19:34;90.90;;;61.40;;
9888;SDS011;4983;42.112;24.738;2022-12-24T08:22:01;79.83;;;59.37;;
9888;SDS011;4983;42.112;24.738;2022-12-24T08:24:28;79.57;;;56.77;;
9888;SDS011;4983;42.112;24.738;2022-12-24T08:26:56;67.03;;;50.80;;
9888;SDS011;4983;42.112;24.738;2022-12-24T08:29:22;61.17;;;46.13;;
9888;SDS011;4983;42.112;24.738;2022-12-24T08:31:49;66.97;;;45.73;;
9888;SDS011;4983;42.112;24.738;2022-12-24T08:34:16;52.47;;;42.07;;
9888;SDS011;4983;42.112;24.738;2022-12-24T08:36:42;52.20;;;39.70;;
9888;SDS011;4983;42.112;24.738;2022-12-24T08:39:09;59.47;;;43.23;;
9888;SDS011;4983;42.112;24.738;2022-12-24T08:41:36;69.00;;;43.67;;
9888;SDS011;4983;42.112;24.738;2022-12-24T08:44:04;61.07;;;43.47;;
9888;SDS011;4983;42.112;24.738;2022-12-24T08:46:30;49.40;;;40.07;;
9888;SDS011;4983;42.112;24.738;2022-12-24T08:48:57;47.13;;;38.27;;
9888;SDS011;4983;42.112;24.738;2022-12-24T08:51:23;47.23;;;35.90;;
9888;SDS011;4983;42.112;24.738;2022-12-24T08:53:50;44.47;;;33.23;;
9888;SDS011;4983;42.112;24.738;2022-12-24T08:56:16;46.43;;;31.53;;
9888;SDS011;4983;42.112;24.738;2022-12-24T08:58:43;43.03;;;32.77;;
9888;SDS011;4983;42.112;24.738;2022-12-24T09:01:12;46.00;;;34.03;;
9888;SDS011;4983;42.112;24.738;2022-12-24T09:03:39;41.40;;;31.70;;
9888;SDS011;4983;42.112;24.738;2022-12-24T09:06:06;42.23;;;33.33;;
9888;SDS011;4983;42.112;24.738;2022-12-24T09:08:34;39.60;;;33.00;;
9888;SDS011;4983;42.112;24.738;2022-12-24T09:11:01;39.73;;;30.53;;
9888;SDS011;4983;42.112;24.738;2022-12-24T09:13:28;38.50;;;27.37;;
9888;SDS011;4983;42.112;24.738;2022-12-24T09:15:55;41.33;;;28.40;;
9888;SDS011;4983;42.112;24.738;2022-12-24T09:18:24;39.80;;;28.10;;
9888;SDS011;4983;42.112;24.738;2022-12-24T09:20:50;34.83;;;26.93;;
9888;SDS011;4983;42.112;24.738;2022-12-24T09:23:17;34.83;;;27.00;;
9888;SDS011;4983;42.112;24.738;2022-12-24T09:25:44;37.43;;;27.00;;
9888;SDS011;4983;42.112;24.738;2022-12-24T09:28:11;32.23;;;26.17;;
9888;SDS011;4983;42.112;24.738;2022-12-24T09:30:37;36.33;;;26.87;;
9888;SDS011;4983;42.112;24.738;2022-12-24T09:33:04;31.50;;;25.03;;
9888;SDS011;4983;42.112;24.738;2022-12-24T09:35:32;82.83;;;52.50;;
9888;SDS011;4983;42.112;24.738;2022-12-24T09:37:58;57.33;;;33.57;;
9888;SDS011;4983;42.112;24.738;2022-12-24T09:40:30;26.47;;;22.40;;
9888;SDS011;4983;42.112;24.738;2022-12-24T09:42:59;30.27;;;22.67;;
9888;SDS011;4983;42.112;24.738;2022-12-24T09:45:27;28.17;;;23.47;;
9888;SDS011;4983;42.112;24.738;2022-12-24T09:47:55;28.57;;;24.03;;
9888;SDS011;4983;42.112;24.738;2022-12-24T09:50:27;34.27;;;26.03;;
9888;SDS011;4983;42.112;24.738;2022-12-24T09:52:57;43.63;;;24.87;;
9888;SDS011;4983;42.112;24.738;2022-12-24T09:55:27;37.90;;;26.17;;
9888;SDS011;4983;42.112;24.738;2022-12-24T09:57:54;35.63;;;25.00;;
9888;SDS011;4983;42.112;24.738;2022-12-24T10:00:22;44.40;;;26.97;;
9888;SDS011;4983;42.112;24.738;2022-12-24T10:02:50;70.97;;;27.57;;
9888;SDS011;4983;42.112;24.738;2022-12-24T10:05:17;34.07;;;23.93;;
9888;SDS011;4983;42.112;24.738;2022-12-24T10:07:50;32.87;;;24.23;;
9888;SDS011;4983;42.112;24.738;2022-12-24T10:10:22;42.47;;;24.60;;
9888;SDS011;4983;42.112;24.738;2022-12-24T10:12:54;34.20;;;25.03;;
9888;SDS011;4983;42.112;24.738;2022-12-24T10:15:24;38.03;;;25.23;;
9888;SDS011;4983;42.112;24.738;2022-12-24T10:17:57;45.67;;;26.33;;
9888;SDS011;4983;42.112;24.738;2022-12-24T10:20:30;76.77;;;27.90;;
9888;SDS011;4983;42.112;24.738;2022-12-24T10:22:59;42.60;;;26.63;;
9888;SDS011;4983;42.112;24.738;2022-12-24T10:25:30;54.43;;;26.30;;
9888;SDS011;4983;42.112;24.738;2022-12-24T10:28:00;55.07;;;24.53;;
9888;SDS011;4983;42.112;24.738;2022-12-24T10:30:27;40.33;;;24.73;;
9888;SDS011;4983;42.112;24.738;2022-12-24T10:32:54;40.13;;;25.43;;
9888;SDS011;4983;42.112;24.738;2022-12-24T10:35:21;43.37;;;26.13;;
9888;SDS011;4983;42.112;24.738;2022-12-24T10:37:49;132.73;;;30.87;;
9888;SDS011;4983;42.112;24.738;2022-12-24T10:40:21;70.50;;;27.47;;
9888;SDS011;4983;42.112;24.738;2022-12-24T10:42:50;33.90;;;24.70;;
9888;SDS011;4983;42.112;24.738;2022-12-24T10:45:19;45.17;;;29.53;;
9888;SDS011;4983;42.112;24.738;2022-12-24T10:47:47;41.87;;;30.73;;
9888;SDS011;4983;42.112;24.738;2022-12-24T10:50:15;33.10;;;29.50;;
9888;SDS011;4983;42.112;24.738;2022-12-24T10:52:43;41.03;;;25.40;;
9888;SDS011;4983;42.112;24.738;2022-12-24T10:55:19;29.17;;;23.93;;
9888;SDS011;4983;42.112;24.738;2022-12-24T10:57:57;34.47;;;23.77;;
9888;SDS011;4983;42.112;24.738;2022-12-24T11:00:25;38.03;;;25.83;;
9888;SDS011;4983;42.112;24.738;2022-12-24T11:03:04;76.07;;;25.93;;
9888;SDS011;4983;42.112;24.738;2022-12-24T11:05:31;31.70;;;24.07;;
9888;SDS011;4983;42.112;24.738;2022-12-24T11:07:59;33.60;;;23.30;;
9888;SDS011;4983;42.112;24.738;2022-12-24T11:10:26;33.23;;;21.97;;
9888;SDS011;4983;42.112;24.738;2022-12-24T11:12:53;40.60;;;33.47;;
9888;SDS011;4983;42.112;24.738;2022-12-24T11:15:23;31.40;;;22.77;;
9888;SDS011;4983;42.112;24.738;2022-12-24T11:17:53;40.60;;;22.13;;
9888;SDS011;4983;42.112;24.738;2022-12-24T11:20:22;28.17;;;21.77;;
9888;SDS011;4983;42.112;24.738;2022-12-24T11:22:50;55.33;;;23.47;;
9888;SDS011;4983;42.112;24.738;2022-12-24T11:25:18;65.03;;;24.97;;
9888;SDS011;4983;42.112;24.738;2022-12-24T11:27:47;33.13;;;24.13;;
9888;SDS011;4983;42.112;24.738;2022-12-24T11:30:27;120.97;;;30.30;;
9888;SDS011;4983;42.112;24.738;2022-12-24T11:35:41;40.70;;;25.80;;
9888;SDS011;4983;42.112;24.738;2022-12-24T11:38:09;29.73;;;22.97;;
9888;SDS011;4983;42.112;24.738;2022-12-24T11:40:37;97.63;;;26.60;;
9888;SDS011;4983;42.112;24.738;2022-12-24T11:43:05;84.63;;;65.40;;
9888;SDS011;4983;42.112;24.738;2022-12-24T11:45:33;54.37;;;45.67;;
9888;SDS011;4983;42.112;24.738;2022-12-24T11:48:00;34.70;;;25.43;;
9888;SDS011;4983;42.112;24.738;2022-12-24T11:50:27;33.97;;;24.90;;
9888;SDS011;4983;42.112;24.738;2022-12-24T11:52:55;40.93;;;32.40;;
9888;SDS011;4983;42.112;24.738;2022-12-24T11:55:25;33.13;;;26.47;;
9888;SDS011;4983;42.112;24.738;2022-12-24T11:57:55;45.13;;;25.43;;
9888;SDS011;4983;42.112;24.738;2022-12-24T12:00:23;53.37;;;23.77;;
9888;SDS011;4983;42.112;24.738;2022-12-24T12:02:52;40.73;;;26.53;;
9888;SDS011;4983;42.112;24.738;2022-12-24T12:05:21;117.83;;;29.63;;
9888;SDS011;4983;42.112;24.738;2022-12-24T12:07:50;40.93;;;24.13;;
9888;SDS011;4983;42.112;24.738;2022-12-24T12:10:20;34.97;;;22.80;;
9888;SDS011;4983;42.112;24.738;2022-12-24T12:12:49;42.03;;;24.37;;
9888;SDS011;4983;42.112;24.738;2022-12-24T12:15:19;32.77;;;23.33;;
9888;SDS011;4983;42.112;24.738;2022-12-24T12:17:47;31.87;;;24.37;;
9888;SDS011;4983;42.112;24.738;2022-12-24T12:20:17;29.37;;;23.20;;
9888;SDS011;4983;42.112;24.738;2022-12-24T12:22:48;29.60;;;23.70;;
9888;SDS011;4983;42.112;24.738;2022-12-24T12:25:17;103.63;;;28.17;;
9888;SDS011;4983;42.112;24.738;2022-12-24T12:27:46;37.07;;;26.90;;
9888;SDS011;4983;42.112;24.738;2022-12-24T12:30:16;33.63;;;23.67;;
9888;SDS011;4983;42.112;24.738;2022-12-24T12:32:44;37.33;;;24.60;;
9888;SDS011;4983;42.112;24.738;2022-12-24T12:35:15;32.83;;;25.73;;
9888;SDS011;4983;42.112;24.738;2022-12-24T12:37:47;33.13;;;26.17;;
9888;SDS011;4983;42.112;24.738;2022-12-24T12:40:18;37.43;;;26.93;;
9888;SDS011;4983;42.112;24.738;2022-12-24T12:42:46;53.47;;;39.50;;
9888;SDS011;4983;42.112;24.738;2022-12-24T12:45:23;49.30;;;27.93;;
9888;SDS011;4983;42.112;24.738;2022-12-24T12:48:03;42.70;;;27.37;;
9888;SDS011;4983;42.112;24.738;2022-12-24T12:50:35;122.53;;;31.40;;
9888;SDS011;4983;42.112;24.738;2022-12-24T12:53:14;86.27;;;29.67;;
9888;SDS011;4983;42.112;24.738;2022-12-24T12:55:49;41.53;;;26.73;;
9888;SDS011;4983;42.112;24.738;2022-12-24T12:58:18;45.30;;;26.27;;
9888;SDS011;4983;42.112;24.738;2022-12-24T13:00:48;33.10;;;24.43;;
9888;SDS011;4983;42.112;24.738;2022-12-24T13:03:27;69.70;;;27.13;;
9888;SDS011;4983;42.112;24.738;2022-12-24T13:06:10;50.67;;;25.30;;
9888;SDS011;4983;42.112;24.738;2022-12-24T13:08:44;43.93;;;26.00;;
9888;SDS011;4983;42.112;24.738;2022-12-24T13:11:19;33.83;;;25.90;;
9888;SDS011;4983;42.112;24.738;2022-12-24T13:13:51;38.47;;;28.93;;
9888;SDS011;4983;42.112;24.738;2022-12-24T13:16:30;30.67;;;23.73;;
9888;SDS011;4983;42.112;24.738;2022-12-24T13:19:10;51.60;;;29.70;;
9888;SDS011;4983;42.112;24.738;2022-12-24T13:21:40;55.77;;;43.87;;
9888;SDS011;4983;42.112;24.738;2022-12-24T13:24:13;39.17;;;29.10;;
9888;SDS011;4983;42.112;24.738;2022-12-24T13:26:41;44.73;;;30.13;;
9888;SDS011;4983;42.112;24.738;2022-12-24T13:31:55;74.97;;;54.40;;
9888;SDS011;4983;42.112;24.738;2022-12-24T13:34:44;54.17;;;41.43;;
9888;SDS011;4983;42.112;24.738;2022-12-24T13:37:19;53.27;;;37.03;;
9888;SDS011;4983;42.112;24.738;2022-12-24T13:40:12;46.57;;;30.17;;
9888;SDS011;4983;42.112;24.738;2022-12-24T13:42:46;64.83;;;36.60;;
9888;SDS011;4983;42.112;24.738;2022-12-24T13:47:59;230.45;;;45.38;;
9888;SDS011;4983;42.112;24.738;2022-12-24T13:50:27;81.60;;;31.27;;
9888;SDS011;4983;42.112;24.738;2022-12-24T13:52:55;79.00;;;31.47;;
9888;SDS011;4983;42.112;24.738;2022-12-24T13:55:23;54.70;;;27.97;;
9888;SDS011;4983;42.112;24.738;2022-12-24T13:57:53;43.37;;;25.60;;
9888;SDS011;4983;42.112;24.738;2022-12-24T14:00:25;86.50;;;28.40;;
9888;SDS011;4983;42.112;24.738;2022-12-24T14:02:53;118.00;;;29.70;;
9888;SDS011;4983;42.112;24.738;2022-12-24T14:05:23;47.47;;;28.80;;
9888;SDS011;4983;42.112;24.738;2022-12-24T14:07:50;81.97;;;30.90;;
9888;SDS011;4983;42.112;24.738;2022-12-24T14:10:19;71.20;;;27.40;;
9888;SDS011;4983;42.112;24.738;2022-12-24T14:12:49;40.60;;;25.67;;
9888;SDS011;4983;42.112;24.738;2022-12-24T14:18:01;68.60;;;28.67;;
9888;SDS011;4983;42.112;24.738;2022-12-24T14:20:28;95.47;;;29.70;;
9888;SDS011;4983;42.112;24.738;2022-12-24T14:22:56;107.63;;;32.10;;
9888;SDS011;4983;42.112;24.738;2022-12-24T14:25:23;146.70;;;34.83;;
9888;SDS011;4983;42.112;24.738;2022-12-24T14:28:02;166.43;;;35.73;;
9888;SDS011;4983;42.112;24.738;2022-12-24T14:30:30;164.70;;;36.67;;
9888;SDS011;4983;42.112;24.738;2022-12-24T14:32:56;199.33;;;40.57;;
9888;SDS011;4983;42.112;24.738;2022-12-24T14:35:24;79.60;;;35.83;;
9888;SDS011;4983;42.112;24.738;2022-12-24T14:38:02;79.33;;;37.07;;
9888;SDS011;4983;42.112;24.738;2022-12-24T14:40:30;57.37;;;29.97;;
9888;SDS011;4983;42.112;24.738;2022-12-24T14:43:00;48.80;;;30.17;;
9888;SDS011;4983;42.112;24.738;2022-12-24T14:45:30;51.40;;;34.03;;
9888;SDS011;4983;42.112;24.738;2022-12-24T14:48:00;91.73;;;38.70;;
9888;SDS011;4983;42.112;24.738;2022-12-24T14:53:17;96.50;;;36.17;;